»·PEaware :: N5491J KSNA-KBUR

N5491J :: KSNA-KBUR

FLIGHT INFORMATION

Flight Status: Arrived
Operator: Privately registered:
United States
More flights under this callsign
Pilot: David L. (16466)
Aircraft: CESSNA 172 SKYHAWK
(C172)
More flights by this aircraft type
Origin: KSNA John Wayne-Orange Co
United States
Destination: KBUR Bob Hope-Burbank
United States
More flights between these airports :: More routes between these airports
Route: SLI V23 POPPR SMO125R SMO SMO311R SILEX
File this flight plan on PilotEdge
Remarks:
Altitude:
(Current/Filed)
4,000ft
Speed:
(Current/Filed)
110kts
Departed: 30-Sep-18 01:13 PM
Arrived: 30-Sep-18 01:54 PM
Distance/Time
Traveled:
40nm/0:41
Distance/Time
To Go:
Arrived

Flight Plot

Page will automatically refresh every two minutes.


Map Options




Map Legend


Flown Route
Filed Route
Departure Airport
Arrival Airport
Navaid (VOR, NDB)
Fix

Horizontal Profiles

Position Reports

Time Latitude Longitude Heading Altitude Ground
Speed
30-Sep-18 12:57 33.671189 -117.868027 211 60ft 0kts
30-Sep-18 12:58 33.671189 -117.868027 211 60ft 0kts
30-Sep-18 12:59 33.671189 -117.868027 211 60ft 0kts
30-Sep-18 13:00 33.671189 -117.868027 211 60ft 0kts
30-Sep-18 13:01 33.671189 -117.868027 211 60ft 0kts
30-Sep-18 13:02 33.671189 -117.868027 211 60ft 0kts
30-Sep-18 13:03 33.671189 -117.868027 211 60ft 0kts
30-Sep-18 13:04 33.671189 -117.868027 211 60ft 0kts
30-Sep-18 13:05 33.671189 -117.868027 211 60ft 0kts
30-Sep-18 13:06 33.671189 -117.868027 211 60ft 0kts
30-Sep-18 13:07 33.671189 -117.868027 211 60ft 0kts
30-Sep-18 13:08 33.671189 -117.868027 211 60ft 0kts
30-Sep-18 13:09 33.671189 -117.868027 211 60ft 0kts
30-Sep-18 13:10 33.671189 -117.868027 211 60ft 0kts
30-Sep-18 13:11 33.672676 -117.867750 33 60ft 16kts
30-Sep-18 13:12 33.676506 -117.865561 27 60ft 17kts
30-Sep-18 13:13 33.679973 -117.863643 297 60ft 0kts
30-Sep-18 13:14 33.679973 -117.863643 297 60ft 0kts
30-Sep-18 13:15 33.678809 -117.864990 206 60ft 51kts
30-Sep-18 13:16 33.663110 -117.881313 232 933ft 84kts
30-Sep-18 13:17 33.649175 -117.903674 232 1985ft 86kts
30-Sep-18 13:18 33.650723 -117.927439 307 2976ft 85kts
30-Sep-18 13:19 33.665066 -117.951121 302 3874ft 84kts
30-Sep-18 13:20 33.680481 -117.978632 301 4000ft 108kts
30-Sep-18 13:21 33.697212 -118.009742 300 4000ft 112kts
30-Sep-18 13:22 33.713709 -118.040992 299 3999ft 108kts
30-Sep-18 13:23 33.730127 -118.072383 298 3990ft 112kts
30-Sep-18 13:24 33.746682 -118.104072 298 3991ft 110kts
30-Sep-18 13:25 33.762701 -118.134724 298 3992ft 107kts
30-Sep-18 13:26 33.777860 -118.165275 293 3992ft 106kts
30-Sep-18 13:27 33.793143 -118.195566 300 4008ft 106kts
30-Sep-18 13:28 33.808674 -118.226133 298 4013ft 107kts
30-Sep-18 13:29 33.824738 -118.256333 302 4014ft 107kts
30-Sep-18 13:30 33.841463 -118.285941 301 4015ft 107kts
30-Sep-18 13:31 33.863613 -118.310010 319 4016ft 108kts
30-Sep-18 13:32 33.886477 -118.332922 319 4017ft 108kts
30-Sep-18 13:33 33.909694 -118.356149 319 4017ft 109kts
30-Sep-18 13:34 33.933018 -118.379473 319 4017ft 109kts
30-Sep-18 13:35 33.956346 -118.402802 318 3999ft 109kts
30-Sep-18 13:36 33.979777 -118.426253 317 3999ft 109kts
30-Sep-18 13:37 34.003292 -118.449806 317 3999ft 110kts
30-Sep-18 13:38 34.028144 -118.472039 323 3999ft 112kts
30-Sep-18 13:39 34.052194 -118.495572 311 3999ft 112kts
30-Sep-18 13:40 34.074670 -118.522140 311 4000ft 114kts
30-Sep-18 13:41 34.097506 -118.548903 311 4000ft 114kts
30-Sep-18 13:42 34.119679 -118.574919 311 3996ft 101kts
30-Sep-18 13:43 34.138458 -118.596868 311 3998ft 93kts
30-Sep-18 13:44 34.156834 -118.619068 311 3998ft 93kts
30-Sep-18 13:45 34.174793 -118.641551 311 3997ft 92kts
30-Sep-18 13:46 34.195437 -118.651655 42 3995ft 100kts
30-Sep-18 13:47 34.200820 -118.618477 88 3998ft 104kts
30-Sep-18 13:48 34.200445 -118.583828 88 3511ft 95kts
30-Sep-18 13:49 34.200115 -118.551506 88 3028ft 98kts
30-Sep-18 13:50 34.199771 -118.518331 88 3000ft 97kts
30-Sep-18 13:51 34.199360 -118.485642 89 2644ft 92kts
30-Sep-18 13:52 34.198977 -118.453687 89 2142ft 97kts
30-Sep-18 13:53 34.198575 -118.421720 89 1627ft 88kts
30-Sep-18 13:54 34.198236 -118.392919 90 1166ft 85kts
30-Sep-18 13:55 34.197914 -118.369175 93 763ft 53kts
30-Sep-18 13:56 34.197017 -118.360298 179 714ft 4kts
30-Sep-18 13:57 34.196879 -118.360289 176 713ft 6kts
30-Sep-18 13:58 34.198464 -118.412308 89 1473ft 86kts
30-Sep-18 13:59 34.198147 -118.390250 91 1123ft 85kts
30-Sep-18 14:00 34.197893 -118.367524 93 736ft 49kts
30-Sep-18 14:01 34.197803 -118.361901 91 718ft 8kts

Navigation Log

Ident Type
1. KSNA Airport
2. SLI Navaid
3. POPPR Fix
4. SMO Navaid
5. SILEX Fix
6. KBUR Airport